createdAt,value
2022-08-19T00:02:39.817Z,12.88
2022-08-19T00:05:52.599Z,11.67
2022-08-19T00:08:56.486Z,15.90
2022-08-19T00:11:59.847Z,13.40
2022-08-19T00:15:02.278Z,12.55
2022-08-19T00:18:04.804Z,15.07
2022-08-19T00:21:10.509Z,16.00
2022-08-19T00:24:15.580Z,14.93
2022-08-19T00:27:26.073Z,14.20
2022-08-19T00:30:29.729Z,12.02
2022-08-19T00:33:33.546Z,12.52
2022-08-19T00:36:36.119Z,12.43
2022-08-19T00:39:38.713Z,12.00
2022-08-19T00:42:41.705Z,12.80
2022-08-19T00:45:44.641Z,12.07
2022-08-19T00:48:46.998Z,14.98
2022-08-19T00:51:52.494Z,12.93
2022-08-19T00:54:55.400Z,13.80
2022-08-19T00:58:10.925Z,14.50
2022-08-19T01:01:14.898Z,13.93
2022-08-19T01:04:17.474Z,13.95
2022-08-19T01:07:20.213Z,14.27
2022-08-19T01:10:27.350Z,14.35
2022-08-19T01:13:48.943Z,17.77
2022-08-19T01:16:55.476Z,14.95
2022-08-19T01:19:57.915Z,12.98
2022-08-19T01:23:00.331Z,18.03
2022-08-19T01:26:02.710Z,13.65
2022-08-19T01:29:05.297Z,14.02
2022-08-19T01:32:32.498Z,15.65
2022-08-19T01:35:36.650Z,14.70
2022-08-19T01:38:44.331Z,15.53
2022-08-19T01:41:47.790Z,14.10
2022-08-19T01:44:50.148Z,15.52
2022-08-19T01:48:01.921Z,13.88
2022-08-19T01:51:06.043Z,14.60
2022-08-19T01:54:10.079Z,13.63
2022-08-19T01:57:15.075Z,14.15
2022-08-19T02:00:20.107Z,14.07
2022-08-19T02:03:23.738Z,12.75
2022-08-19T02:06:27.064Z,15.38
2022-08-19T02:09:29.603Z,12.67
2022-08-19T02:12:32.259Z,14.07
2022-08-19T02:15:35.196Z,15.23
2022-08-19T02:18:37.944Z,14.38
2022-08-19T02:21:40.360Z,15.02
2022-08-19T02:24:43.232Z,13.77
2022-08-19T02:27:45.672Z,16.35
2022-08-19T02:30:48.839Z,15.20
2022-08-19T02:33:51.587Z,18.13
2022-08-19T02:36:53.988Z,14.40
2022-08-19T02:39:56.722Z,16.80
2022-08-19T02:42:59.139Z,15.52
2022-08-19T02:46:02.196Z,16.70
2022-08-19T02:49:06.965Z,16.35
2022-08-19T02:52:09.377Z,15.63
2022-08-19T02:55:12.150Z,14.83
2022-08-19T02:58:15.696Z,16.52
2022-08-19T03:01:30.447Z,13.45
2022-08-19T03:04:32.953Z,13.50
2022-08-19T03:07:35.378Z,14.52
2022-08-19T03:10:44.887Z,14.97
2022-08-19T03:13:47.700Z,14.32
2022-08-19T03:16:52.667Z,14.57
2022-08-19T03:19:55.096Z,13.13
2022-08-19T03:22:57.528Z,13.65
2022-08-19T03:26:16.095Z,14.87
2022-08-19T03:29:30.562Z,16.90
2022-08-19T03:32:33.560Z,17.20
2022-08-19T03:35:37.840Z,18.27
2022-08-19T03:38:47.314Z,15.88
2022-08-19T03:42:32.568Z,16.07
2022-08-19T03:45:13.531Z,15.60
2022-08-19T03:48:17.658Z,19.33
2022-08-19T03:51:31.900Z,16.23
2022-08-19T03:54:34.856Z,15.35
2022-08-19T03:57:37.283Z,15.07
2022-08-19T04:00:43.458Z,14.68
2022-08-19T04:03:49.137Z,14.23
2022-08-19T04:06:52.388Z,17.35
2022-08-19T04:09:55.151Z,17.95
2022-08-19T04:12:57.570Z,18.67
2022-08-19T04:15:59.955Z,18.83
2022-08-19T04:19:04.775Z,16.38
2022-08-19T04:22:08.117Z,17.02
2022-08-19T04:25:11.064Z,19.55
2022-08-19T04:28:14.111Z,14.43
2022-08-19T04:31:30.809Z,13.25
2022-08-19T04:34:33.215Z,18.17
2022-08-19T04:37:35.885Z,20.30
2022-08-19T04:41:00.681Z,16.98
2022-08-19T04:44:04.612Z,18.70
2022-08-19T04:47:11.427Z,15.65
2022-08-19T04:50:14.114Z,15.15
2022-08-19T04:53:16.573Z,17.67
2022-08-19T04:56:23.595Z,14.60
2022-08-19T04:59:25.973Z,11.73
2022-08-19T05:02:28.381Z,14.52
2022-08-19T05:05:32.571Z,14.10
2022-08-19T05:08:48.846Z,17.35
2022-08-19T05:11:54.456Z,15.52
2022-08-19T05:14:59.035Z,15.87
2022-08-19T05:18:19.792Z,13.52
2022-08-19T05:21:43.188Z,14.52
2022-08-19T05:25:09.385Z,13.73
2022-08-19T05:28:07.945Z,18.17
2022-08-19T05:31:10.572Z,16.43
2022-08-19T05:34:18.293Z,17.88
2022-08-19T05:37:23.228Z,13.10
2022-08-19T05:40:25.672Z,16.17
2022-08-19T05:43:29.320Z,15.30
2022-08-19T05:46:31.679Z,14.63
2022-08-19T05:49:37.806Z,15.07
2022-08-19T05:52:43.826Z,13.68
2022-08-19T05:55:52.481Z,15.70
2022-08-19T05:58:55.160Z,17.10
2022-08-19T06:01:57.997Z,17.60
2022-08-19T06:05:00.344Z,21.73
2022-08-19T06:08:02.877Z,18.00
2022-08-19T06:11:16.074Z,18.88
2022-08-19T06:14:27.870Z,20.17
2022-08-19T06:17:31.885Z,17.00
2022-08-19T06:20:55.057Z,18.20
2022-08-19T06:23:58.010Z,23.17
2022-08-19T06:27:02.007Z,19.33
2022-08-19T06:30:05.524Z,21.42
2022-08-19T06:33:08.092Z,16.40
2022-08-19T06:36:30.685Z,22.02
2022-08-19T06:39:36.287Z,21.25
2022-08-19T06:42:54.128Z,18.90
2022-08-19T06:45:57.727Z,19.63
2022-08-19T06:49:02.181Z,15.90
2022-08-19T06:52:06.241Z,23.67
2022-08-19T06:55:09.063Z,17.17
2022-08-19T06:58:11.697Z,18.70
2022-08-19T07:01:14.071Z,19.42
2022-08-19T07:04:23.271Z,17.53
2022-08-19T07:07:26.171Z,17.67
2022-08-19T07:10:28.564Z,17.42
2022-08-19T07:13:36.378Z,17.45
2022-08-19T07:16:42.545Z,15.40
2022-08-19T07:19:45.709Z,20.30
2022-08-19T07:22:50.286Z,15.35
2022-08-19T07:25:53.079Z,15.25
2022-08-19T07:28:56.461Z,20.15
2022-08-19T07:32:00.184Z,18.58
2022-08-19T07:35:04.460Z,21.50
2022-08-19T07:38:06.975Z,14.70
2022-08-19T07:41:14.900Z,16.83
2022-08-19T07:44:18.818Z,20.20
2022-08-19T07:47:48.139Z,16.25
2022-08-19T07:50:43.944Z,17.50
2022-08-19T07:53:47.600Z,18.25
2022-08-19T07:56:52.527Z,15.50
2022-08-19T07:59:55.419Z,15.60
2022-08-19T08:02:57.988Z,15.05
2022-08-19T08:06:18.885Z,21.60
2022-08-19T08:09:25.609Z,20.17
2022-08-19T08:12:42.206Z,16.20
2022-08-19T08:15:45.723Z,16.30
2022-08-19T08:18:50.808Z,15.82
2022-08-19T08:21:58.370Z,20.60
2022-08-19T08:25:27.508Z,15.02
2022-08-19T08:28:34.783Z,12.65
2022-08-19T08:31:37.830Z,16.92
2022-08-19T08:34:40.256Z,14.98
2022-08-19T08:37:42.617Z,16.87
2022-08-19T08:40:50.821Z,12.27
2022-08-19T08:43:54.101Z,13.38
2022-08-19T08:47:02.563Z,15.40
2022-08-19T08:50:12.216Z,14.85
2022-08-19T08:53:29.687Z,13.40
2022-08-19T08:56:34.916Z,13.88
2022-08-19T08:59:42.669Z,13.98
2022-08-19T09:02:50.382Z,15.27
2022-08-19T09:06:04.410Z,14.60
2022-08-19T09:09:19.702Z,15.00
2022-08-19T09:12:47.284Z,14.35
2022-08-19T09:15:59.228Z,10.48
2022-08-19T09:19:07.760Z,10.32
2022-08-19T09:22:10.699Z,12.10
2022-08-19T09:25:16.372Z,14.03
2022-08-19T09:28:22.084Z,13.73
2022-08-19T09:31:27.540Z,14.45
2022-08-19T09:34:30.401Z,12.05
2022-08-19T09:37:40.629Z,12.05
2022-08-19T09:40:43.054Z,12.77
2022-08-19T09:43:48.864Z,9.98
2022-08-19T09:46:51.930Z,14.20
2022-08-19T09:49:55.899Z,15.68
2022-08-19T09:52:59.059Z,13.70
2022-08-19T09:56:04.193Z,11.10
2022-08-19T09:59:07.217Z,16.90
2022-08-19T10:02:11.312Z,10.43
2022-08-19T10:05:32.234Z,14.50
2022-08-19T10:08:37.559Z,16.52
2022-08-19T10:11:54.332Z,10.03
2022-08-19T10:14:57.552Z,15.70
2022-08-19T10:18:00.759Z,15.20
2022-08-19T10:21:09.787Z,10.88
2022-08-19T10:24:14.280Z,13.70
2022-08-19T10:27:16.690Z,15.33
2022-08-19T10:30:20.156Z,13.93
2022-08-19T10:33:36.501Z,11.20
2022-08-19T10:36:55.519Z,12.65
2022-08-19T10:39:59.125Z,13.77
2022-08-19T10:43:01.497Z,12.20
2022-08-19T10:46:04.814Z,14.57
2022-08-19T10:49:12.719Z,11.43
2022-08-19T10:52:33.779Z,12.00
2022-08-19T10:55:54.901Z,10.57
2022-08-19T10:58:58.920Z,12.97
2022-08-19T11:02:03.092Z,13.75
2022-08-19T11:05:13.566Z,11.00
2022-08-19T11:08:23.012Z,13.38
2022-08-19T11:11:28.076Z,11.75
2022-08-19T11:14:32.174Z,13.03
2022-08-19T11:17:36.973Z,11.60
2022-08-19T11:20:40.427Z,14.90
2022-08-19T11:23:42.919Z,13.55
2022-08-19T11:26:46.102Z,13.95
2022-08-19T11:29:48.717Z,12.03
2022-08-19T11:32:51.100Z,16.08
2022-08-19T11:35:54.627Z,15.05
2022-08-19T11:38:57.046Z,15.32
2022-08-19T11:42:00.291Z,11.40
2022-08-19T11:45:04.101Z,15.13
2022-08-19T11:48:06.632Z,13.57
2022-08-19T11:51:18.280Z,12.13
2022-08-19T11:54:20.631Z,17.38
2022-08-19T11:57:22.996Z,12.75
2022-08-19T12:00:25.440Z,17.43
2022-08-19T12:03:28.578Z,15.50
2022-08-19T12:06:35.027Z,13.82
2022-08-19T12:09:42.658Z,14.65
2022-08-19T12:12:54.652Z,12.05
2022-08-19T12:16:01.750Z,11.33
2022-08-19T12:19:05.907Z,17.75
2022-08-19T12:22:08.665Z,14.18
2022-08-19T12:25:12.420Z,15.80
2022-08-19T12:28:14.835Z,15.45
2022-08-19T12:31:18.888Z,15.23
2022-08-19T12:34:21.496Z,12.35
2022-08-19T12:37:23.927Z,14.75
2022-08-19T12:40:26.761Z,13.85
2022-08-19T12:43:31.355Z,15.20
2022-08-19T12:46:33.806Z,12.90
2022-08-19T12:49:52.465Z,13.68
2022-08-19T12:52:58.348Z,20.05
2022-08-19T12:56:01.088Z,15.65
2022-08-19T12:59:05.330Z,12.98
2022-08-19T13:02:08.590Z,16.17
2022-08-19T13:05:14.402Z,17.63
2022-08-19T13:08:17.999Z,15.32
2022-08-19T13:11:24.333Z,15.38
2022-08-19T13:14:26.997Z,13.95
2022-08-19T13:17:29.580Z,16.27
2022-08-19T13:20:32.230Z,14.07
2022-08-19T13:23:36.528Z,16.52
2022-08-19T13:26:38.948Z,13.35
2022-08-19T13:30:03.009Z,18.23
2022-08-19T13:33:12.225Z,13.93
2022-08-19T13:36:14.600Z,13.82
2022-08-19T13:39:17.598Z,14.10
2022-08-19T13:42:20.264Z,16.67
2022-08-19T13:45:25.443Z,13.63
2022-08-19T13:48:28.196Z,11.40
2022-08-19T13:51:30.797Z,14.32
2022-08-19T13:54:33.510Z,20.85
2022-08-19T13:57:37.026Z,19.17
2022-08-19T14:00:44.370Z,12.27
2022-08-19T14:03:46.934Z,13.17
2022-08-19T14:06:49.895Z,17.17
2022-08-19T14:09:52.484Z,17.20
2022-08-19T14:12:56.682Z,15.40
2022-08-19T14:15:59.213Z,17.77
2022-08-19T14:19:02.335Z,13.97
2022-08-19T14:22:06.296Z,14.05
2022-08-19T14:25:11.299Z,16.98
2022-08-19T14:28:13.843Z,14.88
2022-08-19T14:31:19.951Z,16.30
2022-08-19T14:34:23.169Z,14.97
2022-08-19T14:37:26.301Z,15.90
2022-08-19T14:40:32.549Z,17.65
2022-08-19T14:43:35.358Z,22.48
2022-08-19T14:46:37.910Z,15.27
2022-08-19T14:49:42.237Z,18.93
2022-08-19T14:52:48.898Z,14.07
2022-08-19T14:55:51.504Z,17.20
2022-08-19T14:59:00.371Z,12.95
2022-08-19T15:02:20.464Z,16.83
2022-08-19T15:05:25.228Z,15.23
2022-08-19T15:08:29.852Z,21.58
2022-08-19T15:11:34.031Z,41.30
2022-08-19T15:14:38.691Z,57.80
2022-08-19T15:17:45.954Z,36.25
2022-08-19T15:20:50.300Z,34.97
2022-08-19T15:23:53.531Z,84.55
2022-08-19T15:26:56.750Z,46.53
2022-08-19T15:30:01.637Z,39.75
2022-08-19T15:33:05.368Z,40.30
2022-08-19T15:36:08.261Z,37.33
2022-08-19T15:39:13.326Z,30.65
2022-08-19T15:42:16.645Z,26.50
2022-08-19T15:45:34.764Z,43.22
2022-08-19T15:48:38.280Z,30.40
2022-08-19T15:51:43.356Z,46.77
2022-08-19T15:54:45.817Z,34.97
2022-08-19T15:58:06.687Z,25.88
2022-08-19T16:01:28.606Z,26.27
2022-08-19T16:04:49.499Z,19.75
2022-08-19T16:07:52.020Z,20.93
2022-08-19T16:10:55.233Z,25.70
2022-08-19T16:13:59.190Z,26.50
2022-08-19T16:17:02.027Z,19.58
2022-08-19T16:20:07.145Z,25.00
2022-08-19T16:23:10.210Z,28.40
2022-08-19T16:26:14.457Z,24.95
2022-08-19T16:29:33.601Z,24.80
2022-08-19T16:32:37.326Z,17.05
2022-08-19T16:35:39.753Z,18.35
2022-08-19T16:38:42.399Z,16.47
2022-08-19T16:41:45.990Z,23.98
2022-08-19T16:44:48.426Z,20.00
2022-08-19T16:47:50.926Z,16.25
2022-08-19T16:50:54.019Z,22.17
2022-08-19T16:53:56.427Z,18.70
2022-08-19T16:56:58.958Z,19.58
2022-08-19T17:00:08.794Z,20.77
2022-08-19T17:03:14.997Z,18.33
2022-08-19T17:06:21.487Z,16.98
2022-08-19T17:09:26.040Z,18.07
2022-08-19T17:12:31.725Z,18.98
2022-08-19T17:15:35.373Z,21.02
2022-08-19T17:18:38.698Z,22.38
2022-08-19T17:21:41.158Z,18.98
2022-08-19T17:24:43.591Z,17.67
2022-08-19T17:27:45.994Z,43.28
2022-08-19T17:30:48.752Z,21.08
2022-08-19T17:33:51.535Z,21.60
2022-08-19T17:36:56.728Z,17.88
2022-08-19T17:39:59.328Z,21.97
2022-08-19T17:43:02.752Z,19.83
2022-08-19T17:46:05.367Z,19.00
2022-08-19T17:49:08.187Z,16.90
2022-08-19T17:52:12.138Z,17.65
2022-08-19T17:55:14.950Z,18.40
2022-08-19T17:58:19.348Z,18.77
2022-08-19T18:01:24.672Z,16.05
2022-08-19T18:04:29.815Z,19.23
2022-08-19T18:07:34.276Z,20.15
2022-08-19T18:10:37.969Z,22.17
2022-08-19T18:13:40.768Z,17.02
2022-08-19T18:16:43.113Z,16.27
2022-08-19T18:19:47.405Z,20.27
2022-08-19T18:22:50.504Z,80.18
2022-08-19T18:25:52.896Z,70.90
2022-08-19T18:28:55.356Z,49.63
2022-08-19T18:31:57.842Z,35.78
2022-08-19T18:35:11.275Z,33.08
2022-08-19T18:38:35.459Z,23.20
2022-08-19T18:41:56.906Z,29.47
2022-08-19T18:45:18.144Z,16.92
2022-08-19T18:48:38.890Z,18.65
2022-08-19T18:51:41.556Z,16.20
2022-08-19T18:54:46.935Z,16.70
2022-08-19T18:57:51.138Z,14.23
2022-08-19T19:00:57.013Z,12.25
2022-08-19T19:04:03.368Z,14.82
2022-08-19T19:07:07.216Z,17.13
2022-08-19T19:10:10.022Z,19.75
2022-08-19T19:13:16.285Z,25.03
2022-08-19T19:16:24.263Z,14.77
2022-08-19T19:19:27.180Z,17.73
2022-08-19T19:22:29.737Z,28.80
2022-08-19T19:25:50.589Z,17.15
2022-08-19T19:28:54.907Z,19.63
2022-08-19T19:31:57.360Z,16.10
2022-08-19T19:34:59.762Z,18.05
2022-08-19T19:38:02.299Z,16.55
2022-08-19T19:41:05.097Z,16.13
2022-08-19T19:44:32.479Z,15.00
2022-08-19T19:47:32.479Z,14.63
2022-08-19T19:50:35.160Z,19.85
2022-08-19T19:53:37.712Z,14.57
2022-08-19T19:56:45.474Z,16.33
2022-08-19T19:59:51.372Z,15.83
2022-08-19T20:02:55.252Z,18.42
2022-08-19T20:05:59.477Z,15.18
2022-08-19T20:09:08.143Z,13.43
2022-08-19T20:12:10.647Z,17.80
2022-08-19T20:15:14.788Z,12.50
2022-08-19T20:18:17.512Z,16.15
2022-08-19T20:21:21.069Z,12.10
2022-08-19T20:24:27.128Z,15.82
2022-08-19T20:27:31.169Z,15.10
2022-08-19T20:30:44.411Z,14.77
2022-08-19T20:33:50.082Z,13.60
2022-08-19T20:36:52.482Z,14.10
2022-08-19T20:39:55.075Z,15.27
2022-08-19T20:42:57.752Z,10.35
2022-08-19T20:46:02.641Z,17.73
2022-08-19T20:49:05.860Z,12.20
2022-08-19T20:52:08.404Z,15.18
2022-08-19T20:55:12.388Z,13.73
2022-08-19T20:58:19.323Z,16.02
2022-08-19T21:01:22.386Z,17.83
2022-08-19T21:04:25.057Z,12.98
2022-08-19T21:07:39.117Z,12.27
2022-08-19T21:10:42.561Z,13.68
2022-08-19T21:13:45.362Z,13.25
2022-08-19T21:16:47.827Z,13.93
2022-08-19T21:19:50.514Z,11.40
2022-08-19T21:22:52.971Z,13.13
2022-08-19T21:25:57.513Z,14.70
2022-08-19T21:29:00.037Z,16.85
2022-08-19T21:32:04.101Z,13.93
2022-08-19T21:35:07.004Z,12.63
2022-08-19T21:38:09.803Z,13.43
2022-08-19T21:41:12.263Z,11.63
2022-08-19T21:44:14.719Z,14.00
2022-08-19T21:47:17.176Z,13.23
2022-08-19T21:50:19.959Z,12.93
2022-08-19T21:53:22.900Z,15.02
2022-08-19T21:56:25.537Z,16.38
2022-08-19T21:59:28.179Z,12.30
2022-08-19T22:02:31.091Z,15.13
2022-08-19T22:05:34.565Z,13.43
2022-08-19T22:08:37.377Z,14.93
2022-08-19T22:11:39.994Z,15.00
2022-08-19T22:14:43.766Z,15.45
2022-08-19T22:17:46.189Z,12.90
2022-08-19T22:20:48.636Z,12.45
2022-08-19T22:23:51.308Z,9.85
2022-08-19T22:26:54.035Z,15.82
2022-08-19T22:29:56.413Z,11.25
2022-08-19T22:33:01.114Z,12.17
2022-08-19T22:36:05.509Z,14.45
2022-08-19T22:39:10.014Z,11.65
2022-08-19T22:42:12.717Z,13.85
2022-08-19T22:45:16.966Z,14.35
2022-08-19T22:48:22.874Z,14.17
2022-08-19T22:51:44.144Z,17.42
2022-08-19T22:54:52.911Z,15.48
2022-08-19T22:57:56.207Z,17.13
2022-08-19T23:00:58.840Z,12.75
2022-08-19T23:04:03.728Z,9.97
2022-08-19T23:07:07.663Z,11.90
2022-08-19T23:10:11.009Z,13.40
2022-08-19T23:13:14.557Z,11.93
2022-08-19T23:16:16.935Z,12.85
2022-08-19T23:19:20.661Z,13.27
2022-08-19T23:22:25.091Z,12.98
2022-08-19T23:25:30.361Z,14.55
2022-08-19T23:28:51.142Z,15.90
2022-08-19T23:31:53.800Z,10.65
2022-08-19T23:34:56.387Z,11.77
2022-08-19T23:38:01.047Z,13.13
2022-08-19T23:41:05.970Z,10.85
2022-08-19T23:44:14.593Z,10.25
2022-08-19T23:47:17.633Z,14.20
2022-08-19T23:50:22.498Z,9.20
2022-08-19T23:53:25.828Z,13.55
2022-08-19T23:56:28.322Z,12.82
2022-08-19T23:59:30.756Z,11.23
